Time;durP1;ratioP1;P1;durP2;ratioP2;P2;SDS_P1;SDS_P2;PMS_P1;PMS_P2;Temp;Humidity;BMP_temperature;BMP_pressure;BME280_temperature;BME280_humidity;BME280_pressure;Samples;Min_cycle;Max_cycle;Signal;HPM_P1;HPM_P2
2023/10/27 00:00:36;;;;;;;68.45;33.50;;;11.70;99.90;;;;;;5009924;28;20351;-75
2023/10/27 00:03:01;;;;;;;74.78;33.45;;;11.70;99.90;;;;;;5010278;28;20105;-74
2023/10/27 00:05:27;;;;;;;72.88;33.90;;;11.70;99.90;;;;;;5009999;28;20029;-74
2023/10/27 00:07:53;;;;;;;71.85;34.55;;;11.70;99.90;;;;;;5006364;28;20022;-74
2023/10/27 00:10:18;;;;;;;69.90;32.65;;;11.70;99.90;;;;;;5006725;28;20018;-74
2023/10/27 00:12:44;;;;;;;72.28;34.22;;;11.70;99.90;;;;;;5004751;28;20100;-75
2023/10/27 00:15:10;;;;;;;74.20;34.83;;;11.70;99.90;;;;;;5009806;28;20022;-75
2023/10/27 00:17:36;;;;;;;74.47;34.35;;;11.70;99.90;;;;;;4998086;28;20026;-75
2023/10/27 00:20:03;;;;;;;70.57;33.85;;;11.70;99.90;;;;;;5009284;28;20030;-74
2023/10/27 00:22:29;;;;;;;72.40;33.75;;;11.70;99.90;;;;;;5005363;28;20101;-74
2023/10/27 00:24:54;;;;;;;72.40;33.85;;;11.70;99.90;;;;;;5005611;28;20117;-74
2023/10/27 00:27:20;;;;;;;70.82;33.45;;;11.70;99.90;;;;;;5004852;28;20037;-75
2023/10/27 00:29:46;;;;;;;67.60;32.60;;;11.70;99.90;;;;;;5005889;28;20099;-74
2023/10/27 00:32:12;;;;;;;73.22;33.60;;;11.70;99.90;;;;;;5010070;28;20065;-74
2023/10/27 00:34:37;;;;;;;71.60;34.53;;;11.70;99.90;;;;;;4997352;28;20042;-74
2023/10/27 00:37:03;;;;;;;72.68;34.30;;;11.70;99.90;;;;;;4998643;28;20025;-75
2023/10/27 00:39:29;;;;;;;72.70;34.80;;;11.70;99.90;;;;;;4992598;28;20480;-76
2023/10/27 00:41:54;;;;;;;75.35;33.63;;;11.70;99.90;;;;;;4997531;28;20077;-75
2023/10/27 00:44:20;;;;;;;72.93;34.47;;;11.70;99.90;;;;;;5009604;28;20030;-75
2023/10/27 00:46:46;;;;;;;74.75;33.42;;;11.70;99.90;;;;;;4998400;28;20034;-76
2023/10/27 00:49:12;;;;;;;78.65;34.75;;;11.70;99.90;;;;;;5012891;28;20033;-75
2023/10/27 00:51:38;;;;;;;66.88;33.63;;;11.70;99.90;;;;;;5008802;28;20389;-75
2023/10/27 00:54:08;;;;;;;75.63;34.03;;;11.70;99.90;;;;;;5012106;28;20467;-75
2023/10/27 00:56:35;;;;;;;69.63;32.78;;;11.80;99.90;;;;;;5010900;28;20037;-75
2023/10/27 00:59:02;;;;;;;66.35;32.05;;;11.70;99.90;;;;;;5012121;28;20467;-75
2023/10/27 01:01:27;;;;;;;71.05;32.83;;;11.80;99.90;;;;;;5013252;28;20486;-75
2023/10/27 01:03:55;;;;;;;71.05;32.25;;;11.70;99.90;;;;;;5012908;28;20095;-75
2023/10/27 01:06:22;;;;;;;65.85;30.38;;;11.80;99.90;;;;;;5013480;28;20033;-75
2023/10/27 01:08:48;;;;;;;68.90;31.33;;;11.70;99.90;;;;;;5012947;28;20018;-75
2023/10/27 01:11:14;;;;;;;67.55;31.33;;;11.70;99.90;;;;;;4997300;28;20497;-75
2023/10/27 01:13:40;;;;;;;68.20;30.75;;;11.70;99.90;;;;;;5012977;28;20478;-75
2023/10/27 01:16:05;;;;;;;67.18;30.60;;;11.80;99.90;;;;;;5000564;28;20062;-75
2023/10/27 01:18:31;;;;;;;72.28;31.90;;;11.70;99.90;;;;;;5012774;28;20597;-75
2023/10/27 01:20:56;;;;;;;66.72;30.17;;;11.80;99.90;;;;;;5010304;28;20387;-75
2023/10/27 01:23:22;;;;;;;66.30;28.85;;;11.70;99.90;;;;;;5012647;28;20033;-75
2023/10/27 01:25:48;;;;;;;66.75;29.05;;;11.80;99.90;;;;;;5013353;28;20026;-75
2023/10/27 01:28:13;;;;;;;66.32;29.08;;;11.70;99.90;;;;;;5007606;28;20061;-75
2023/10/27 01:30:39;;;;;;;64.25;28.02;;;11.70;99.90;;;;;;5006403;28;20076;-75
2023/10/27 01:33:04;;;;;;;63.92;27.30;;;11.80;99.90;;;;;;5012481;28;20382;-75
2023/10/27 01:35:30;;;;;;;57.35;26.40;;;11.70;99.90;;;;;;5012685;28;20026;-75
2023/10/27 01:37:55;;;;;;;54.63;24.85;;;11.70;99.90;;;;;;5011951;28;20049;-75
2023/10/27 01:40:21;;;;;;;57.08;25.00;;;11.70;99.90;;;;;;5012339;28;20544;-75
2023/10/27 01:42:46;;;;;;;54.72;24.42;;;11.70;99.90;;;;;;5011135;28;20394;-75
2023/10/27 01:45:13;;;;;;;59.38;24.33;;;11.70;99.90;;;;;;5023875;28;20018;-75
2023/10/27 01:47:39;;;;;;;54.95;24.23;;;11.70;99.90;;;;;;5012276;28;20022;-75
2023/10/27 01:50:06;;;;;;;50.22;22.80;;;11.70;99.90;;;;;;5012237;28;20433;-75
2023/10/27 01:52:31;;;;;;;49.17;22.30;;;11.70;99.90;;;;;;5011573;28;20133;-75
2023/10/27 01:54:57;;;;;;;50.80;22.52;;;11.70;99.90;;;;;;5011909;28;20093;-75
2023/10/27 01:57:24;;;;;;;44.67;21.23;;;11.70;99.90;;;;;;5011014;28;20466;-75
2023/10/27 01:59:52;;;;;;;51.05;23.30;;;11.70;99.90;;;;;;5011401;28;20044;-75
2023/10/27 02:02:18;;;;;;;52.40;23.27;;;11.70;99.90;;;;;;5007145;28;20432;-75
2023/10/27 02:04:44;;;;;;;53.05;23.02;;;11.70;99.90;;;;;;5012320;28;20049;-75
2023/10/27 02:07:09;;;;;;;52.17;23.17;;;11.70;99.90;;;;;;5011901;28;20038;-75
2023/10/27 02:09:35;;;;;;;54.40;24.05;;;11.70;99.90;;;;;;5011836;28;20552;-75
2023/10/27 02:12:02;;;;;;;58.60;24.63;;;11.70;99.90;;;;;;5009232;28;20118;-75
2023/10/27 02:14:28;;;;;;;57.40;24.60;;;11.70;99.90;;;;;;5006692;28;20072;-75
2023/10/27 02:16:54;;;;;;;60.60;24.48;;;11.70;99.90;;;;;;5011658;28;20521;-74
2023/10/27 02:19:19;;;;;;;61.85;24.85;;;11.70;99.90;;;;;;5004526;28;20101;-75
2023/10/27 02:21:45;;;;;;;57.92;25.17;;;11.70;99.90;;;;;;5011827;28;20018;-74
2023/10/27 02:24:12;;;;;;;61.95;26.00;;;11.70;99.90;;;;;;5011357;28;20068;-75
2023/10/27 02:26:37;;;;;;;56.63;24.90;;;11.70;99.90;;;;;;5012001;28;20026;-75
2023/10/27 02:29:03;;;;;;;60.25;24.70;;;11.70;99.90;;;;;;5011212;28;20061;-76
2023/10/27 02:31:29;;;;;;;59.58;25.60;;;11.70;99.90;;;;;;5003342;28;20017;-76
2023/10/27 02:33:54;;;;;;;59.40;24.33;;;11.70;99.90;;;;;;5011347;28;20018;-76
2023/10/27 02:36:20;;;;;;;55.38;24.15;;;11.70;99.90;;;;;;5010133;28;20100;-75
2023/10/27 02:38:45;;;;;;;58.28;25.83;;;11.70;99.90;;;;;;5011843;28;20036;-76
2023/10/27 02:41:11;;;;;;;50.92;22.65;;;11.70;99.90;;;;;;5011446;28;20034;-76
2023/10/27 02:43:40;;;;;;;52.35;23.52;;;11.80;99.90;;;;;;5011155;28;20026;-75
2023/10/27 02:46:06;;;;;;;48.05;21.88;;;11.80;99.90;;;;;;5010371;28;20108;-76
2023/10/27 02:48:32;;;;;;;48.42;21.00;;;11.80;99.90;;;;;;5011667;28;20562;-75
2023/10/27 02:50:57;;;;;;;45.63;21.40;;;11.80;99.90;;;;;;5010632;28;20050;-76
2023/10/27 02:53:23;;;;;;;44.20;20.85;;;11.70;99.90;;;;;;5011266;28;20053;-76
2023/10/27 02:55:50;;;;;;;41.85;19.52;;;11.70;99.90;;;;;;5009878;28;20263;-76
2023/10/27 02:58:16;;;;;;;42.47;20.80;;;11.80;99.90;;;;;;5007206;28;20479;-76
2023/10/27 03:00:42;;;;;;;40.05;20.67;;;11.80;99.90;;;;;;5005887;28;20025;-76
2023/10/27 03:03:08;;;;;;;39.28;18.92;;;11.80;99.90;;;;;;5003515;28;20034;-75
2023/10/27 03:05:33;;;;;;;39.72;19.30;;;11.80;99.90;;;;;;5010726;28;20064;-76
2023/10/27 03:07:59;;;;;;;39.10;18.42;;;11.80;99.90;;;;;;4999196;28;20022;-76
2023/10/27 03:10:25;;;;;;;32.45;17.33;;;11.80;99.90;;;;;;5006158;28;20449;-75
2023/10/27 03:12:51;;;;;;;32.33;16.67;;;11.70;99.90;;;;;;5010480;28;20022;-76
2023/10/27 03:15:17;;;;;;;31.08;15.88;;;11.80;99.90;;;;;;5005227;28;20049;-76
2023/10/27 03:17:42;;;;;;;34.17;15.73;;;11.80;99.90;;;;;;5004517;28;20072;-76
2023/10/27 03:20:09;;;;;;;31.85;15.60;;;11.80;99.90;;;;;;5008198;28;20030;-76
2023/10/27 03:22:35;;;;;;;31.50;15.73;;;11.80;99.90;;;;;;5010713;28;20379;-76
2023/10/27 03:25:01;;;;;;;29.98;15.18;;;11.80;99.90;;;;;;5011080;28;20029;-76
2023/10/27 03:27:27;;;;;;;26.90;14.00;;;11.80;99.90;;;;;;5005601;28;20033;-75
2023/10/27 03:29:52;;;;;;;27.20;13.95;;;11.80;99.90;;;;;;5003533;28;20026;-74
2023/10/27 03:32:18;;;;;;;27.38;13.82;;;11.70;99.90;;;;;;5009491;28;20111;-75
2023/10/27 03:34:45;;;;;;;26.42;13.68;;;11.70;99.90;;;;;;5010791;28;20467;-75
2023/10/27 03:37:12;;;;;;;28.80;15.13;;;11.70;99.90;;;;;;5004865;28;20379;-74
2023/10/27 03:39:39;;;;;;;25.77;13.93;;;11.70;99.90;;;;;;5002152;28;20032;-74
2023/10/27 03:42:07;;;;;;;26.60;14.02;;;11.70;99.90;;;;;;5008592;28;20049;-75
2023/10/27 03:44:33;;;;;;;25.65;13.95;;;11.70;99.90;;;;;;5005680;28;20562;-75
2023/10/27 03:46:58;;;;;;;27.38;13.88;;;11.70;99.90;;;;;;4998881;28;20098;-74
2023/10/27 03:49:25;;;;;;;25.17;13.48;;;11.70;99.90;;;;;;4998554;28;20109;-74
2023/10/27 03:51:51;;;;;;;27.80;14.07;;;11.70;99.90;;;;;;5010286;28;20053;-74
2023/10/27 03:54:17;;;;;;;29.02;14.60;;;11.70;99.90;;;;;;5010153;28;20022;-74
2023/10/27 03:56:43;;;;;;;26.88;13.75;;;11.70;99.90;;;;;;5010099;28;20049;-74
2023/10/27 03:59:10;;;;;;;25.35;13.73;;;11.70;99.90;;;;;;5008329;28;20053;-74
2023/10/27 04:01:36;;;;;;;25.85;13.25;;;11.70;99.90;;;;;;5009819;28;20479;-74
2023/10/27 04:04:02;;;;;;;26.17;14.02;;;11.70;99.90;;;;;;5008739;28;20069;-75
2023/10/27 04:06:28;;;;;;;27.48;13.45;;;11.70;99.90;;;;;;5002758;28;20030;-75
2023/10/27 04:08:54;;;;;;;25.75;13.43;;;11.70;99.90;;;;;;5009404;28;20028;-75
2023/10/27 04:11:20;;;;;;;25.88;13.38;;;11.70;99.90;;;;;;5008144;28;20101;-75
2023/10/27 04:13:45;;;;;;;23.20;12.77;;;11.70;99.90;;;;;;5009323;28;20141;-75
2023/10/27 04:16:12;;;;;;;26.42;13.82;;;11.70;99.90;;;;;;5009309;28;20022;-75
2023/10/27 04:18:38;;;;;;;24.00;13.15;;;11.70;99.90;;;;;;5009084;28;20037;-75
2023/10/27 04:21:04;;;;;;;27.30;13.68;;;11.70;99.90;;;;;;5012615;28;20026;-75
2023/10/27 04:23:30;;;;;;;26.85;13.50;;;11.70;99.90;;;;;;5014145;28;20101;-76
2023/10/27 04:25:56;;;;;;;26.70;13.65;;;11.70;99.90;;;;;;5001164;28;20099;-75
2023/10/27 04:28:22;;;;;;;29.23;15.07;;;11.70;99.90;;;;;;5013689;28;20034;-75
2023/10/27 04:30:47;;;;;;;25.90;14.15;;;11.70;99.90;;;;;;5013624;28;20084;-76
2023/10/27 04:33:13;;;;;;;25.02;13.85;;;11.70;99.90;;;;;;5013916;28;20395;-76
2023/10/27 04:35:38;;;;;;;25.20;13.75;;;11.70;99.90;;;;;;5011704;28;20025;-76
2023/10/27 04:38:04;;;;;;;28.23;15.23;;;11.70;99.90;;;;;;5005611;28;20482;-76
2023/10/27 04:40:31;;;;;;;28.73;14.65;;;11.70;99.90;;;;;;5012623;28;20033;-75
2023/10/27 04:42:58;;;;;;;28.58;14.40;;;11.70;99.90;;;;;;5009754;28;20014;-76
2023/10/27 04:45:25;;;;;;;26.08;14.23;;;11.70;99.90;;;;;;5002783;28;20023;-76
2023/10/27 04:47:50;;;;;;;28.70;14.93;;;11.70;99.90;;;;;;5010265;28;20022;-75
2023/10/27 04:50:17;;;;;;;29.33;15.60;;;11.70;99.90;;;;;;5013009;28;20449;-76
2023/10/27 04:52:43;;;;;;;29.02;15.07;;;11.70;99.90;;;;;;5012848;28;20093;-76
2023/10/27 04:55:09;;;;;;;29.27;15.70;;;11.70;99.90;;;;;;5013683;28;20025;-76
2023/10/27 04:57:35;;;;;;;32.15;15.40;;;11.70;99.90;;;;;;5013276;28;20506;-76
2023/10/27 05:00:04;;;;;;;30.02;15.18;;;11.70;99.90;;;;;;5010700;28;20097;-76
2023/10/27 05:02:29;;;;;;;28.27;14.48;;;11.70;99.90;;;;;;5011411;28;20489;-76
2023/10/27 05:04:55;;;;;;;28.15;15.27;;;11.70;99.90;;;;;;5010073;28;20100;-76
2023/10/27 05:07:21;;;;;;;26.75;14.85;;;11.70;99.90;;;;;;5011549;28;20037;-75
2023/10/27 05:09:46;;;;;;;29.35;15.45;;;11.70;99.90;;;;;;5012554;28;20117;-76
2023/10/27 05:12:12;;;;;;;26.58;15.05;;;11.70;99.90;;;;;;5013716;28;20030;-76
2023/10/27 05:14:37;;;;;;;30.38;15.80;;;11.70;99.90;;;;;;5009339;28;20022;-75
2023/10/27 05:17:03;;;;;;;27.13;15.20;;;11.70;99.90;;;;;;5009465;28;20548;-75
2023/10/27 05:19:28;;;;;;;27.98;15.15;;;11.70;99.90;;;;;;5013042;28;20030;-75
2023/10/27 05:21:54;;;;;;;26.92;15.38;;;11.70;99.90;;;;;;5011183;28;20034;-74
2023/10/27 05:24:20;;;;;;;27.77;14.90;;;11.70;99.90;;;;;;5008457;28;20030;-75
2023/10/27 05:26:45;;;;;;;28.60;15.23;;;11.70;99.90;;;;;;5004765;28;20093;-75
2023/10/27 05:29:11;;;;;;;27.55;14.85;;;11.70;99.90;;;;;;5009759;28;20077;-74
2023/10/27 05:31:39;;;;;;;29.42;16.02;;;11.70;99.90;;;;;;5002076;28;20073;-75
2023/10/27 05:34:05;;;;;;;27.27;15.05;;;11.70;99.90;;;;;;5020329;28;20018;-75
2023/10/27 05:36:30;;;;;;;27.40;15.45;;;11.70;99.90;;;;;;5012358;28;20077;-75
2023/10/27 05:38:56;;;;;;;28.85;15.68;;;11.70;99.90;;;;;;5010869;28;20076;-75
2023/10/27 05:41:21;;;;;;;28.75;15.50;;;11.70;99.90;;;;;;5005982;28;20107;-76
2023/10/27 05:43:47;;;;;;;30.58;15.68;;;11.70;99.90;;;;;;5011779;28;20025;-75
2023/10/27 05:46:13;;;;;;;29.77;15.88;;;11.70;99.90;;;;;;5011055;28;20101;-75
2023/10/27 05:48:39;;;;;;;27.88;15.63;;;11.70;99.90;;;;;;5011789;28;20046;-74
2023/10/27 05:51:05;;;;;;;29.98;15.93;;;11.70;99.90;;;;;;5009754;28;20487;-73
2023/10/27 05:53:30;;;;;;;27.23;15.20;;;11.70;99.90;;;;;;5004081;28;20116;-74
2023/10/27 05:55:56;;;;;;;30.50;16.13;;;11.70;99.90;;;;;;5007993;28;20022;-73
2023/10/27 05:58:21;;;;;;;29.15;15.85;;;11.60;99.90;;;;;;5010622;28;20088;-74
2023/10/27 06:00:48;;;;;;;29.40;15.30;;;11.70;99.90;;;;;;5006789;28;20036;-74
2023/10/27 06:03:14;;;;;;;29.42;15.98;;;11.70;99.90;;;;;;4997344;28;20331;-74
2023/10/27 06:05:40;;;;;;;30.38;15.70;;;11.70;99.90;;;;;;5010297;28;20098;-74
2023/10/27 06:08:05;;;;;;;30.58;16.30;;;11.60;99.90;;;;;;5011484;28;20026;-74
2023/10/27 06:10:31;;;;;;;27.73;15.55;;;11.60;99.90;;;;;;5010819;28;20036;-74
2023/10/27 06:12:56;;;;;;;27.98;15.73;;;11.70;99.90;;;;;;5011773;28;20022;-74
2023/10/27 06:15:22;;;;;;;30.33;15.95;;;11.70;99.90;;;;;;5010468;28;20022;-74
2023/10/27 06:17:49;;;;;;;30.20;15.68;;;11.70;99.90;;;;;;5008034;28;20057;-74
2023/10/27 06:20:15;;;;;;;30.25;16.58;;;11.70;99.90;;;;;;5005288;28;20054;-74
2023/10/27 06:22:42;;;;;;;33.20;17.23;;;11.70;99.90;;;;;;5009132;28;20064;-74
2023/10/27 06:25:09;;;;;;;32.03;16.73;;;11.60;99.90;;;;;;4999521;28;20480;-74
2023/10/27 06:27:37;;;;;;;30.88;16.30;;;11.70;99.90;;;;;;5009703;28;20010;-74
2023/10/27 06:30:03;;;;;;;29.30;16.10;;;11.60;99.90;;;;;;5010281;28;20390;-75
2023/10/27 06:32:29;;;;;;;32.60;16.85;;;11.60;99.90;;;;;;5011114;28;20026;-75
2023/10/27 06:34:54;;;;;;;34.63;16.80;;;11.60;99.90;;;;;;5011353;28;20022;-75
2023/10/27 06:37:20;;;;;;;31.90;17.33;;;11.60;99.90;;;;;;5010264;28;20101;-74
2023/10/27 06:39:45;;;;;;;33.35;18.60;;;11.60;99.90;;;;;;5003978;28;20030;-74
2023/10/27 06:42:11;;;;;;;34.17;18.83;;;11.60;99.90;;;;;;5010026;28;20030;-75
2023/10/27 06:44:37;;;;;;;30.05;16.58;;;11.60;99.90;;;;;;5008480;28;20036;-74
2023/10/27 06:47:02;;;;;;;29.63;16.92;;;11.60;99.90;;;;;;5011221;28;20111;-74
2023/10/27 06:49:28;;;;;;;31.20;16.77;;;11.60;99.90;;;;;;5012589;28;20029;-75
2023/10/27 06:51:54;;;;;;;34.00;17.17;;;11.60;99.90;;;;;;5015117;28;20049;-74
2023/10/27 06:54:19;;;;;;;29.77;15.52;;;11.60;99.90;;;;;;5016338;28;20550;-75
2023/10/27 06:56:45;;;;;;;31.13;16.25;;;11.60;99.90;;;;;;5015373;28;20080;-74
2023/10/27 06:59:12;;;;;;;30.77;16.67;;;11.60;99.90;;;;;;5009530;28;20026;-74
2023/10/27 07:01:38;;;;;;;30.25;16.25;;;11.60;99.90;;;;;;5014245;28;20363;-75
2023/10/27 07:04:04;;;;;;;31.63;16.45;;;11.60;99.90;;;;;;5013509;28;20025;-73
2023/10/27 07:06:30;;;;;;;30.02;15.95;;;11.60;99.90;;;;;;5015093;28;20038;-74
2023/10/27 07:08:55;;;;;;;28.33;16.40;;;11.60;99.90;;;;;;5031715;28;20164;-74
2023/10/27 07:11:22;;;;;;;28.67;15.25;;;11.60;99.90;;;;;;5016499;28;20022;-75
2023/10/27 07:13:47;;;;;;;26.73;15.38;;;11.60;99.90;;;;;;5012362;28;20022;-74
2023/10/27 07:16:13;;;;;;;29.42;16.33;;;11.60;99.90;;;;;;5015685;28;20505;-74
2023/10/27 07:18:39;;;;;;;28.52;16.00;;;11.70;99.90;;;;;;5013865;28;20029;-74
2023/10/27 07:21:06;;;;;;;30.58;15.98;;;11.70;99.90;;;;;;5015650;28;20022;-74
2023/10/27 07:23:31;;;;;;;28.95;15.45;;;11.70;99.90;;;;;;5015193;28;20109;-74
2023/10/27 07:25:57;;;;;;;26.40;15.40;;;11.70;99.90;;;;;;5013649;28;20046;-74
2023/10/27 07:28:23;;;;;;;30.27;16.10;;;11.70;99.90;;;;;;5015403;28;20034;-74
2023/10/27 07:30:50;;;;;;;29.58;15.75;;;11.70;99.90;;;;;;5005403;28;20021;-74
2023/10/27 07:33:15;;;;;;;28.35;15.65;;;11.70;99.90;;;;;;5014775;28;20018;-74
2023/10/27 07:35:41;;;;;;;29.23;15.77;;;11.70;99.90;;;;;;5014905;28;20407;-74
2023/10/27 07:38:07;;;;;;;27.80;14.98;;;11.70;99.90;;;;;;5014843;28;20037;-74
2023/10/27 07:40:34;;;;;;;28.45;15.00;;;11.70;99.90;;;;;;5019812;28;20022;-74
2023/10/27 07:43:00;;;;;;;28.80;16.23;;;11.70;99.90;;;;;;5009012;28;20022;-74
2023/10/27 07:45:26;;;;;;;27.73;15.80;;;11.70;99.90;;;;;;5002342;28;20128;-75
2023/10/27 07:47:52;;;;;;;24.92;14.70;;;11.70;99.90;;;;;;5013841;28;20040;-74
2023/10/27 07:50:17;;;;;;;27.13;15.15;;;11.70;99.90;;;;;;5015540;28;20106;-74
2023/10/27 07:52:44;;;;;;;25.17;15.00;;;11.70;99.90;;;;;;5015656;28;20108;-74
2023/10/27 07:55:09;;;;;;;26.75;15.25;;;11.70;99.90;;;;;;5013442;28;20022;-74
2023/10/27 07:57:36;;;;;;;28.05;16.05;;;11.70;99.90;;;;;;5002542;28;20048;-74
2023/10/27 08:00:04;;;;;;;25.38;15.07;;;11.70;99.90;;;;;;5015056;28;20017;-74
2023/10/27 08:02:32;;;;;;;28.20;15.77;;;11.70;99.90;;;;;;5002291;28;20018;-74
2023/10/27 08:04:58;;;;;;;25.25;15.30;;;11.70;99.90;;;;;;5014597;28;20029;-74
2023/10/27 08:07:24;;;;;;;28.05;15.57;;;11.70;99.90;;;;;;5015005;28;20022;-74
2023/10/27 08:09:50;;;;;;;28.60;15.45;;;11.80;99.90;;;;;;5015623;28;20080;-74
2023/10/27 08:12:16;;;;;;;26.48;15.02;;;11.80;99.90;;;;;;5015480;28;20036;-74
2023/10/27 08:14:42;;;;;;;27.15;15.13;;;11.80;99.90;;;;;;5008700;28;20481;-75
2023/10/27 08:17:07;;;;;;;24.17;14.68;;;11.80;99.90;;;;;;5013446;28;20022;-72
2023/10/27 08:19:33;;;;;;;27.02;15.57;;;11.80;99.90;;;;;;5015782;28;20029;-73
2023/10/27 08:21:58;;;;;;;27.70;15.20;;;11.80;99.90;;;;;;5030827;28;20022;-73
2023/10/27 08:24:24;;;;;;;25.20;14.85;;;11.80;99.90;;;;;;5016003;28;20045;-73
2023/10/27 08:26:50;;;;;;;25.40;14.63;;;11.80;99.90;;;;;;5009324;28;20153;-73
2023/10/27 08:29:15;;;;;;;25.38;15.07;;;11.90;99.90;;;;;;5016475;28;20057;-74
2023/10/27 08:31:41;;;;;;;27.30;15.45;;;11.80;99.90;;;;;;5008252;28;20054;-74
2023/10/27 08:34:11;;;;;;;25.02;14.63;;;11.90;99.90;;;;;;5009045;28;20033;-73
2023/10/27 08:36:37;;;;;;;26.77;14.13;;;11.90;99.90;;;;;;5010525;28;20113;-74
2023/10/27 08:39:03;;;;;;;21.38;12.82;;;11.90;99.90;;;;;;5009195;28;20495;-74
2023/10/27 08:41:29;;;;;;;24.33;13.93;;;11.90;99.90;;;;;;5010058;28;20056;-73
2023/10/27 08:43:54;;;;;;;21.02;13.02;;;11.90;99.90;;;;;;5010135;28;20034;-73
2023/10/27 08:46:21;;;;;;;22.05;13.32;;;11.90;99.90;;;;;;5001689;28;20494;-73
2023/10/27 08:48:47;;;;;;;22.05;13.00;;;11.90;99.90;;;;;;5008167;28;20041;-73
2023/10/27 08:51:14;;;;;;;24.90;14.27;;;11.90;99.90;;;;;;5008896;28;20379;-73
2023/10/27 08:53:40;;;;;;;21.83;13.00;;;11.90;99.90;;;;;;5009633;28;20049;-73
2023/10/27 08:56:12;;;;;;;23.88;13.52;;;11.90;99.90;;;;;;5009421;28;20018;-73
2023/10/27 08:58:39;;;;;;;21.02;12.90;;;11.90;99.90;;;;;;5008278;28;20022;-73
2023/10/27 09:01:04;;;;;;;21.00;12.95;;;12.00;99.90;;;;;;5008736;28;20481;-73
2023/10/27 09:03:31;;;;;;;21.63;12.43;;;12.00;99.90;;;;;;5004809;28;20761;-74
2023/10/27 09:05:57;;;;;;;22.17;13.05;;;11.90;99.90;;;;;;5008085;28;20058;-73
2023/10/27 09:08:23;;;;;;;20.52;12.93;;;11.90;99.90;;;;;;5010505;28;20026;-73
2023/10/27 09:10:50;;;;;;;20.60;12.77;;;12.00;99.90;;;;;;5011436;28;20034;-73
2023/10/27 09:13:22;;;;;;;21.55;13.30;;;12.00;99.90;;;;;;5013849;28;20056;-73
2023/10/27 09:15:50;;;;;;;21.50;12.90;;;12.00;99.90;;;;;;5004655;28;20022;-73
2023/10/27 09:18:15;;;;;;;19.15;12.30;;;12.00;99.90;;;;;;5010354;28;20084;-74
2023/10/27 09:20:59;;;;;;;20.63;12.45;;;12.00;99.90;;;;;;5009324;28;20022;-73
2023/10/27 09:23:25;;;;;;;21.20;12.18;;;12.00;99.90;;;;;;5006635;28;20026;-73
2023/10/27 09:25:56;;;;;;;21.98;13.23;;;12.10;99.90;;;;;;5007843;28;20076;-73
2023/10/27 09:28:28;;;;;;;20.77;13.45;;;12.10;99.90;;;;;;5011119;28;20030;-73
2023/10/27 09:30:54;;;;;;;22.50;13.38;;;12.10;99.90;;;;;;5007760;28;20119;-73
2023/10/27 09:33:28;;;;;;;18.75;11.70;;;12.10;99.90;;;;;;4999646;28;20022;-73
2023/10/27 09:35:54;;;;;;;19.33;12.63;;;12.10;99.90;;;;;;5002997;28;20521;-73
2023/10/27 09:38:22;;;;;;;20.45;12.00;;;12.10;99.90;;;;;;5012196;28;20096;-74
2023/10/27 09:40:48;;;;;;;16.98;11.57;;;12.20;99.90;;;;;;5009976;28;20018;-74
2023/10/27 09:43:17;;;;;;;17.90;11.30;;;12.20;99.90;;;;;;5012121;28;20113;-73
2023/10/27 09:45:54;;;;;;;18.77;11.57;;;12.10;99.90;;;;;;5011903;28;20390;-73
2023/10/27 09:48:27;;;;;;;19.02;11.32;;;12.10;99.90;;;;;;5012056;28;20474;-73
2023/10/27 09:51:22;;;;;;;17.40;10.70;;;12.10;99.90;;;;;;5011776;28;20029;-74
2023/10/27 09:53:50;;;;;;;18.63;11.20;;;12.10;99.90;;;;;;5015272;28;20046;-73
2023/10/27 09:56:17;;;;;;;15.35;9.60;;;12.10;99.90;;;;;;5011663;28;20044;-73
2023/10/27 09:58:44;;;;;;;13.98;9.02;;;12.10;99.90;;;;;;5011665;28;20036;-74
2023/10/27 10:01:10;;;;;;;14.07;8.35;;;12.10;99.90;;;;;;5011960;28;20022;-73
2023/10/27 10:03:41;;;;;;;13.00;8.07;;;12.10;99.90;;;;;;5012124;28;20097;-73
2023/10/27 10:06:23;;;;;;;14.48;8.57;;;12.20;99.90;;;;;;5004844;28;20022;-74
2023/10/27 10:09:11;;;;;;;13.20;8.75;;;12.20;99.90;;;;;;5010481;28;20450;-74
2023/10/27 10:11:55;;;;;;;14.73;8.85;;;12.20;99.90;;;;;;5011174;28;20076;-73
2023/10/27 10:14:54;;;;;;;16.30;9.63;;;12.20;99.90;;;;;;5006863;28;20042;-73
2023/10/27 10:17:39;;;;;;;15.23;9.18;;;12.30;99.90;;;;;;5015427;28;20442;-73
2023/10/27 10:20:05;;;;;;;17.73;9.55;;;12.30;99.90;;;;;;5011702;28;20026;-73
2023/10/27 10:22:51;;;;;;;13.68;9.27;;;12.30;99.90;;;;;;5010909;28;20041;-73
2023/10/27 10:25:21;;;;;;;16.95;9.63;;;12.30;99.90;;;;;;5011692;28;20097;-73
2023/10/27 10:28:11;;;;;;;15.40;9.40;;;12.30;99.90;;;;;;5011703;28;20073;-74
2023/10/27 10:30:42;;;;;;;17.90;10.65;;;12.40;99.90;;;;;;5007388;28;20037;-73
2023/10/27 10:33:16;;;;;;;110.50;29.25;;;12.40;99.90;;;;;;5009582;28;20030;-75
2023/10/27 10:35:46;;;;;;;49.15;14.10;;;12.40;99.90;;;;;;5007616;28;20022;-73
2023/10/27 10:38:26;;;;;;;20.08;11.13;;;12.40;99.90;;;;;;5013725;28;20453;-73
2023/10/27 10:41:02;;;;;;;17.20;10.98;;;12.50;99.90;;;;;;5016324;28;20018;-73
2023/10/27 10:43:36;;;;;;;19.20;11.32;;;12.50;99.90;;;;;;5013204;28;20026;-74
2023/10/27 10:46:03;;;;;;;17.60;11.70;;;12.50;99.90;;;;;;5009143;28;20017;-73
2023/10/27 10:48:34;;;;;;;19.92;11.88;;;12.50;99.90;;;;;;5008260;28;20197;-73
2023/10/27 10:53:52;;;;;;;18.50;11.82;;;12.60;99.90;;;;;;5016947;28;20179;-73
2023/10/27 10:56:20;;;;;;;19.70;11.48;;;12.60;99.90;;;;;;5011328;28;20042;-73
2023/10/27 10:58:46;;;;;;;16.10;10.70;;;12.60;99.90;;;;;;5016648;28;20399;-73
2023/10/27 11:01:21;;;;;;;13.80;9.10;;;12.70;99.90;;;;;;5015849;28;20109;-73
2023/10/27 11:03:52;;;;;;;13.50;9.13;;;12.80;99.90;;;;;;5014393;28;20125;-73
2023/10/27 11:06:22;;;;;;;13.40;7.53;;;12.80;99.90;;;;;;5016549;28;20030;-73
2023/10/27 11:08:49;;;;;;;9.40;6.53;;;12.80;99.90;;;;;;5014489;28;20113;-73
2023/10/27 11:11:18;;;;;;;9.60;6.35;;;12.80;99.90;;;;;;5016034;28;20104;-73
2023/10/27 11:13:52;;;;;;;9.93;5.80;;;12.80;99.90;;;;;;5012521;28;20045;-73
2023/10/27 11:16:18;;;;;;;8.02;5.63;;;12.80;99.90;;;;;;5007473;28;20034;-74
2023/10/27 11:18:45;;;;;;;7.07;4.60;;;12.90;99.90;;;;;;5011606;28;20429;-73
2023/10/27 11:21:18;;;;;;;3.72;3.20;;;12.90;99.90;;;;;;5014975;28;20072;-73
2023/10/27 11:23:46;;;;;;;5.70;3.22;;;12.90;99.90;;;;;;5014473;28;20404;-73
2023/10/27 11:26:11;;;;;;;6.82;3.47;;;12.90;99.90;;;;;;5015501;28;20101;-73
2023/10/27 11:28:44;;;;;;;4.85;3.22;;;12.90;99.90;;;;;;5009834;28;20049;-74
2023/10/27 11:31:23;;;;;;;5.72;3.40;;;12.80;99.90;;;;;;5015722;28;20030;-74
2023/10/27 11:34:07;;;;;;;5.60;3.50;;;12.80;99.90;;;;;;5010155;28;20034;-74
2023/10/27 11:36:35;;;;;;;6.50;4.00;;;12.80;99.90;;;;;;5008228;28;20128;-73
2023/10/27 11:39:20;;;;;;;5.50;4.10;;;12.70;99.90;;;;;;5008475;28;20018;-74
2023/10/27 11:41:50;;;;;;;5.97;4.07;;;12.70;99.90;;;;;;5008093;28;20056;-73
2023/10/27 11:44:19;;;;;;;7.85;4.72;;;12.70;99.90;;;;;;5009459;28;20033;-73
2023/10/27 11:46:46;;;;;;;8.43;5.22;;;12.60;99.90;;;;;;5006501;28;20026;-73
2023/10/27 11:49:15;;;;;;;8.95;5.32;;;12.70;99.90;;;;;;5010035;28;20387;-73
2023/10/27 11:51:45;;;;;;;9.52;5.93;;;12.70;99.90;;;;;;5009373;28;20050;-73
2023/10/27 11:54:11;;;;;;;13.13;6.95;;;12.70;99.90;;;;;;5001227;28;20053;-73
2023/10/27 11:56:37;;;;;;;10.73;7.30;;;12.80;99.90;;;;;;5002049;28;20054;-73
2023/10/27 11:59:03;;;;;;;13.82;8.43;;;12.80;99.90;;;;;;5009428;28;20030;-73
2023/10/27 12:01:29;;;;;;;15.15;9.68;;;12.80;99.90;;;;;;5005514;28;20069;-73
2023/10/27 12:03:54;;;;;;;14.93;9.93;;;12.90;99.90;;;;;;5009255;28;20386;-73
2023/10/27 12:06:20;;;;;;;17.83;9.93;;;12.90;99.90;;;;;;5009068;28;20026;-73
2023/10/27 12:08:45;;;;;;;18.27;11.57;;;12.90;99.90;;;;;;5006224;28;20037;-73
2023/10/27 12:11:14;;;;;;;16.20;11.02;;;13.00;99.90;;;;;;4999837;28;20053;-73
2023/10/27 12:13:40;;;;;;;19.80;11.73;;;13.00;99.90;;;;;;5007064;28;20038;-73
2023/10/27 12:16:06;;;;;;;19.10;12.73;;;13.00;99.90;;;;;;5004022;28;20038;-74
2023/10/27 12:18:32;;;;;;;16.67;12.50;;;13.00;99.90;;;;;;4999401;28;20110;-73
2023/10/27 12:21:00;;;;;;;23.35;13.80;;;13.10;99.90;;;;;;5006883;28;20026;-73
2023/10/27 12:23:29;;;;;;;22.05;14.13;;;13.10;99.90;;;;;;5012399;28;20053;-74
2023/10/27 12:25:56;;;;;;;22.02;13.60;;;13.10;99.90;;;;;;5007599;28;20034;-73
2023/10/27 12:28:23;;;;;;;23.77;13.30;;;13.10;99.90;;;;;;5013007;28;20034;-73
2023/10/27 12:30:49;;;;;;;26.42;15.50;;;13.20;99.90;;;;;;5007270;28;20037;-73